Time;durP1;ratioP1;P1;durP2;ratioP2;P2;SDS_P1;SDS_P2;PMS_P1;PMS_P2;Temp;Humidity;BMP_temperature;BMP_pressure;BME280_temperature;BME280_humidity;BME280_pressure;Samples;Min_cycle;Max_cycle;Signal;HPM_P1;HPM_P2
2022/06/09 00:01:40;;;;;;;11.57;5.90;;;;;;;;;;5053545;28;20201;-65
2022/06/09 00:04:12;;;;;;;9.20;5.67;;;;;;;;;;5053718;28;20212;-66
2022/06/09 00:06:44;;;;;;;12.07;6.20;;;;;;;;;;5052411;28;20654;-66
2022/06/09 00:09:11;;;;;;;13.87;6.00;;;;;;;;;;5053323;28;20194;-66
2022/06/09 00:11:40;;;;;;;9.57;6.20;;;;;;;;;;5053589;28;20177;-66
2022/06/09 00:14:07;;;;;;;13.43;6.30;;;;;;;;;;5053330;28;20182;-63
2022/06/09 00:16:34;;;;;;;10.83;5.27;;;;;;;;;;5053433;28;20264;-66
2022/06/09 00:19:00;;;;;;;11.80;5.27;;;;;;;;;;5055867;28;20641;-67
2022/06/09 00:21:26;;;;;;;9.20;5.33;;;;;;;;;;5057392;28;20201;-67
2022/06/09 00:23:52;;;;;;;11.13;5.97;;;;;;;;;;5056978;28;20517;-66
2022/06/09 00:26:18;;;;;;;9.57;5.10;;;;;;;;;;5056898;28;20205;-65
2022/06/09 00:28:44;;;;;;;9.07;5.30;;;;;;;;;;5057374;28;20202;-66
2022/06/09 00:31:10;;;;;;;9.50;5.10;;;;;;;;;;5057174;28;20261;-64
2022/06/09 00:33:36;;;;;;;9.53;5.10;;;;;;;;;;5057323;28;20210;-66
2022/06/09 00:36:02;;;;;;;11.47;4.83;;;;;;;;;;5056896;28;20206;-66
2022/06/09 00:38:28;;;;;;;9.80;5.50;;;;;;;;;;5057059;28;20254;-67
2022/06/09 00:40:59;;;;;;;13.80;5.27;;;;;;;;;;5056850;28;20209;-66
2022/06/09 00:43:25;;;;;;;10.00;5.00;;;;;;;;;;5057313;28;20712;-66
2022/06/09 00:45:57;;;;;;;12.70;4.80;;;;;;;;;;5055516;28;20651;-65
2022/06/09 00:48:25;;;;;;;11.97;4.90;;;;;;;;;;5055285;28;20182;-66
2022/06/09 00:50:54;;;;;;;7.57;4.47;;;;;;;;;;5056686;28;20186;-66
2022/06/09 00:53:22;;;;;;;9.47;4.50;;;;;;;;;;5056754;28;20235;-67
2022/06/09 00:55:49;;;;;;;9.23;4.50;;;;;;;;;;5055284;28;20598;-66
2022/06/09 00:58:17;;;;;;;6.37;3.93;;;;;;;;;;5055226;28;20174;-64
2022/06/09 01:00:57;;;;;;;7.77;3.90;;;;;;;;;;5055093;28;20182;-65
2022/06/09 01:03:25;;;;;;;5.53;3.93;;;;;;;;;;5056576;28;20185;-65
2022/06/09 01:05:55;;;;;;;8.30;4.27;;;;;;;;;;5056282;28;20179;-66
2022/06/09 01:08:21;;;;;;;10.00;4.97;;;;;;;;;;5054882;28;20236;-65
2022/06/09 01:10:47;;;;;;;13.37;4.13;;;;;;;;;;5056108;28;20182;-66
2022/06/09 01:13:13;;;;;;;6.90;4.33;;;;;;;;;;5056332;28;20187;-65
2022/06/09 01:15:53;;;;;;;12.00;4.27;;;;;;;;;;5057586;28;20242;-65
2022/06/09 01:18:27;;;;;;;5.23;4.03;;;;;;;;;;5056598;28;20525;-65
2022/06/09 01:21:12;;;;;;;8.03;4.47;;;;;;;;;;5055100;28;20174;-65
2022/06/09 01:23:38;;;;;;;7.70;4.13;;;;;;;;;;5056453;28;20182;-68
2022/06/09 01:26:16;;;;;;;8.13;4.20;;;;;;;;;;5056098;28;20179;-65
2022/06/09 01:28:52;;;;;;;9.73;4.60;;;;;;;;;;5055523;28;20202;-65
2022/06/09 01:31:20;;;;;;;8.07;4.00;;;;;;;;;;5054736;28;20178;-66
2022/06/09 01:33:46;;;;;;;6.67;3.77;;;;;;;;;;5055531;28;20178;-66
2022/06/09 01:36:15;;;;;;;7.87;3.83;;;;;;;;;;5056100;28;20259;-65
2022/06/09 01:38:48;;;;;;;7.60;3.83;;;;;;;;;;5055657;28;20227;-65
2022/06/09 01:41:15;;;;;;;8.80;3.47;;;;;;;;;;5055725;28;20167;-65
2022/06/09 01:43:41;;;;;;;6.67;3.63;;;;;;;;;;5054435;28;20674;-67
2022/06/09 01:46:10;;;;;;;9.90;4.17;;;;;;;;;;5055508;28;20179;-65
2022/06/09 01:48:36;;;;;;;7.40;3.97;;;;;;;;;;5055611;28;20202;-65
2022/06/09 01:51:03;;;;;;;8.57;3.77;;;;;;;;;;5054471;28;20588;-66
2022/06/09 01:53:46;;;;;;;11.47;4.47;;;;;;;;;;5055474;28;20182;-66
2022/06/09 01:56:15;;;;;;;7.47;3.53;;;;;;;;;;5055588;28;20304;-66
2022/06/09 01:58:47;;;;;;;7.07;3.23;;;;;;;;;;5056492;28;20277;-65
2022/06/09 02:01:14;;;;;;;8.67;3.17;;;;;;;;;;5056550;28;20183;-65
2022/06/09 02:03:43;;;;;;;9.63;3.70;;;;;;;;;;5058104;28;20178;-66
2022/06/09 02:06:10;;;;;;;6.77;3.07;;;;;;;;;;5058074;28;20175;-65
2022/06/09 02:08:37;;;;;;;8.67;3.30;;;;;;;;;;5056053;28;20202;-65
2022/06/09 02:11:07;;;;;;;7.97;3.43;;;;;;;;;;5055728;28;20202;-64
2022/06/09 02:13:36;;;;;;;10.10;4.13;;;;;;;;;;5054728;28;20214;-65
2022/06/09 02:16:03;;;;;;;9.83;3.10;;;;;;;;;;5055275;28;20213;-65
2022/06/09 02:18:31;;;;;;;13.10;3.77;;;;;;;;;;5054137;28;20612;-65
2022/06/09 02:21:00;;;;;;;10.37;3.83;;;;;;;;;;5053742;28;20292;-65
2022/06/09 02:23:26;;;;;;;13.43;3.90;;;;;;;;;;5055489;28;20175;-65
2022/06/09 02:25:52;;;;;;;11.17;3.47;;;;;;;;;;5055010;28;20227;-65
2022/06/09 02:28:18;;;;;;;5.63;3.40;;;;;;;;;;5053624;28;20214;-64
2022/06/09 02:30:44;;;;;;;10.00;3.60;;;;;;;;;;5055080;28;20602;-65
2022/06/09 02:33:10;;;;;;;11.17;4.50;;;;;;;;;;5055068;28;20183;-64
2022/06/09 02:35:37;;;;;;;8.30;3.40;;;;;;;;;;5054961;28;20351;-65
2022/06/09 02:38:03;;;;;;;12.70;3.27;;;;;;;;;;5054600;28;20202;-65
2022/06/09 02:40:30;;;;;;;6.33;3.70;;;;;;;;;;5054395;28;20200;-65
2022/06/09 02:42:56;;;;;;;8.97;3.63;;;;;;;;;;5053428;28;20186;-65
2022/06/09 02:45:22;;;;;;;12.07;3.90;;;;;;;;;;5054877;28;20227;-65
2022/06/09 02:47:49;;;;;;;10.07;3.43;;;;;;;;;;5055582;28;20174;-65
2022/06/09 02:50:15;;;;;;;13.73;3.63;;;;;;;;;;5054488;28;20202;-65
2022/06/09 02:52:44;;;;;;;8.57;4.00;;;;;;;;;;5054788;28;20682;-64
2022/06/09 02:55:11;;;;;;;6.87;3.40;;;;;;;;;;5054252;28;20206;-65
2022/06/09 02:57:37;;;;;;;9.87;4.17;;;;;;;;;;5055063;28;20174;-66
2022/06/09 03:00:08;;;;;;;14.37;3.57;;;;;;;;;;5053890;28;20686;-66
2022/06/09 03:02:34;;;;;;;6.87;3.90;;;;;;;;;;5052654;28;20645;-65
2022/06/09 03:05:00;;;;;;;9.80;3.90;;;;;;;;;;5052792;28;20186;-67
2022/06/09 03:07:26;;;;;;;11.47;3.63;;;;;;;;;;5054107;28;20179;-66
2022/06/09 03:09:53;;;;;;;12.10;3.93;;;;;;;;;;5053924;28;20213;-66
2022/06/09 03:12:19;;;;;;;12.97;4.30;;;;;;;;;;5053957;28;20231;-66
2022/06/09 03:14:45;;;;;;;11.93;4.17;;;;;;;;;;5054080;28;20288;-66
2022/06/09 03:17:12;;;;;;;10.93;3.73;;;;;;;;;;5053831;28;20264;-66
2022/06/09 03:19:38;;;;;;;13.43;4.30;;;;;;;;;;5052502;28;20570;-66
2022/06/09 03:22:04;;;;;;;13.67;4.57;;;;;;;;;;5052541;28;20673;-65
2022/06/09 03:24:30;;;;;;;10.30;4.60;;;;;;;;;;5052555;28;20197;-66
2022/06/09 03:26:56;;;;;;;8.53;4.53;;;;;;;;;;5053948;28;20193;-66
2022/06/09 03:29:22;;;;;;;14.90;4.03;;;;;;;;;;5077988;23;20236;-66
2022/06/09 03:31:48;;;;;;;9.93;4.83;;;;;;;;;;5036023;28;20186;-68
2022/06/09 03:34:15;;;;;;;10.47;4.57;;;;;;;;;;5053932;28;20262;-66
2022/06/09 03:36:43;;;;;;;13.23;4.90;;;;;;;;;;5053887;28;20198;-66
2022/06/09 03:39:09;;;;;;;9.87;4.97;;;;;;;;;;5054243;28;20174;-66
2022/06/09 03:41:35;;;;;;;16.90;6.03;;;;;;;;;;5035973;28;20239;-65
2022/06/09 03:44:01;;;;;;;21.73;7.63;;;;;;;;;;5054034;28;20261;-67
2022/06/09 03:46:27;;;;;;;12.20;6.20;;;;;;;;;;5054038;28;20240;-67
2022/06/09 03:48:53;;;;;;;12.23;5.63;;;;;;;;;;5053804;28;20182;-66
2022/06/09 03:51:19;;;;;;;13.30;6.77;;;;;;;;;;5035692;28;20240;-66
2022/06/09 03:53:45;;;;;;;16.47;7.13;;;;;;;;;;5053825;28;20178;-66
2022/06/09 03:56:15;;;;;;;15.13;6.73;;;;;;;;;;5053933;28;20631;-66
2022/06/09 03:58:41;;;;;;;13.17;6.67;;;;;;;;;;5035853;28;20229;-66
2022/06/09 04:01:08;;;;;;;11.30;6.93;;;;;;;;;;5035718;28;20205;-66
2022/06/09 04:03:34;;;;;;;24.00;8.20;;;;;;;;;;5053590;28;20638;-66
2022/06/09 04:06:00;;;;;;;19.13;7.50;;;;;;;;;;5036028;28;20186;-66
2022/06/09 04:08:26;;;;;;;14.77;7.40;;;;;;;;;;5035997;28;20677;-66
2022/06/09 04:10:53;;;;;;;18.43;7.87;;;;;;;;;;5035931;28;20209;-65
2022/06/09 04:13:19;;;;;;;15.80;8.13;;;;;;;;;;5053579;28;20277;-65
2022/06/09 04:15:46;;;;;;;18.97;8.33;;;;;;;;;;5054131;28;20564;-65
2022/06/09 04:18:12;;;;;;;15.87;8.03;;;;;;;;;;5053549;28;20177;-65
2022/06/09 04:20:38;;;;;;;22.73;9.17;;;;;;;;;;5053737;28;20191;-66
2022/06/09 04:23:04;;;;;;;15.50;7.90;;;;;;;;;;5035645;28;20662;-65
2022/06/09 04:25:30;;;;;;;19.60;9.43;;;;;;;;;;5053823;28;20673;-70
2022/06/09 04:27:56;;;;;;;17.73;9.40;;;;;;;;;;5035426;28;20218;-65
2022/06/09 04:30:23;;;;;;;19.03;9.13;;;;;;;;;;5053172;28;20753;-66
2022/06/09 04:32:48;;;;;;;18.07;8.93;;;;;;;;;;5053471;28;20182;-66
2022/06/09 04:35:15;;;;;;;14.73;8.63;;;;;;;;;;5053145;28;20264;-65
2022/06/09 04:37:59;;;;;;;17.03;9.37;;;;;;;;;;5053382;28;20174;-66
2022/06/09 04:40:26;;;;;;;17.20;9.40;;;;;;;;;;5053436;28;20205;-66
2022/06/09 04:42:52;;;;;;;23.37;10.67;;;;;;;;;;5053129;28;20171;-66
2022/06/09 04:45:19;;;;;;;29.70;10.77;;;;;;;;;;5053204;28;20183;-65
2022/06/09 04:47:45;;;;;;;20.00;10.20;;;;;;;;;;5035154;28;20273;-66
2022/06/09 04:50:11;;;;;;;23.10;10.47;;;;;;;;;;5052880;28;20245;-66
2022/06/09 04:52:37;;;;;;;21.83;9.87;;;;;;;;;;5035162;28;20668;-65
2022/06/09 04:55:04;;;;;;;16.00;9.03;;;;;;;;;;5053452;28;20280;-66
2022/06/09 04:57:30;;;;;;;18.03;10.67;;;;;;;;;;5035189;28;20218;-66
2022/06/09 04:59:55;;;;;;;18.90;8.80;;;;;;;;;;5035054;28;20210;-66
2022/06/09 05:02:22;;;;;;;19.63;9.57;;;;;;;;;;5053939;28;20181;-66
2022/06/09 05:04:48;;;;;;;14.10;9.10;;;;;;;;;;5056473;28;20627;-66
2022/06/09 05:07:14;;;;;;;16.80;9.57;;;;;;;;;;5038451;28;20189;-66
2022/06/09 05:09:40;;;;;;;16.53;8.83;;;;;;;;;;5038508;28;20203;-65
2022/06/09 05:12:06;;;;;;;16.23;8.80;;;;;;;;;;5056282;28;20261;-67
2022/06/09 05:14:32;;;;;;;24.27;10.10;;;;;;;;;;5038448;28;20206;-66
2022/06/09 05:16:57;;;;;;;21.60;9.47;;;;;;;;;;5056471;28;20179;-66
2022/06/09 05:19:23;;;;;;;17.60;9.27;;;;;;;;;;5056394;28;20194;-67
2022/06/09 05:21:49;;;;;;;17.43;8.87;;;;;;;;;;5056348;28;20270;-65
2022/06/09 05:24:16;;;;;;;14.77;9.20;;;;;;;;;;5038338;28;20190;-66
2022/06/09 05:26:42;;;;;;;15.73;9.40;;;;;;;;;;5038082;28;20233;-65
2022/06/09 05:29:08;;;;;;;20.23;9.47;;;;;;;;;;5037951;28;20178;-66
2022/06/09 05:31:34;;;;;;;13.77;9.60;;;;;;;;;;5038015;28;20521;-65
2022/06/09 05:34:00;;;;;;;19.93;9.43;;;;;;;;;;5038159;28;20273;-66
2022/06/09 05:36:26;;;;;;;19.73;9.50;;;;;;;;;;5055896;28;20679;-66
2022/06/09 05:47:05;;;;;;;15.27;9.47;;;;;;;;;;5056272;28;20569;-66
2022/06/09 05:49:31;;;;;;;15.20;9.97;;;;;;;;;;5037670;28;20198;-66
2022/06/09 05:51:58;;;;;;;21.70;9.33;;;;;;;;;;5055537;28;20277;-66
2022/06/09 05:54:24;;;;;;;21.83;9.63;;;;;;;;;;5037604;28;20183;-66
2022/06/09 05:56:50;;;;;;;17.30;9.20;;;;;;;;;;5037710;28;20206;-66
2022/06/09 05:59:16;;;;;;;18.33;8.97;;;;;;;;;;5037525;28;20209;-65
2022/06/09 06:01:42;;;;;;;14.30;8.57;;;;;;;;;;5055642;28;20182;-66
2022/06/09 06:04:09;;;;;;;13.93;9.40;;;;;;;;;;5055386;28;20174;-66
2022/06/09 06:06:35;;;;;;;20.77;9.87;;;;;;;;;;5055346;28;20265;-66
2022/06/09 06:09:21;;;;;;;15.60;9.27;;;;;;;;;;5055703;28;20175;-66
2022/06/09 06:11:47;;;;;;;22.53;10.07;;;;;;;;;;5037290;28;20182;-66
2022/06/09 06:14:14;;;;;;;18.60;9.87;;;;;;;;;;5054819;28;20186;-66
2022/06/09 06:16:40;;;;;;;17.77;9.90;;;;;;;;;;5037098;28;20190;-65
2022/06/09 06:19:07;;;;;;;16.27;9.60;;;;;;;;;;5054961;28;20720;-65
2022/06/09 06:21:34;;;;;;;22.00;10.10;;;;;;;;;;5055351;28;20174;-66
2022/06/09 06:24:00;;;;;;;15.40;9.73;;;;;;;;;;5054902;28;20178;-66
2022/06/09 06:26:26;;;;;;;18.10;10.53;;;;;;;;;;5036960;28;20248;-67
2022/06/09 06:28:52;;;;;;;15.63;10.07;;;;;;;;;;5054577;28;20540;-65
2022/06/09 06:31:18;;;;;;;15.53;10.40;;;;;;;;;;5036947;28;20190;-66
2022/06/09 06:33:44;;;;;;;18.27;11.97;;;;;;;;;;5055147;28;20178;-66
2022/06/09 06:36:10;;;;;;;16.70;11.00;;;;;;;;;;5054609;28;20666;-65
2022/06/09 06:38:37;;;;;;;16.53;10.63;;;;;;;;;;5055245;28;20534;-65
2022/06/09 06:41:04;;;;;;;22.87;10.60;;;;;;;;;;5036712;28;20198;-66
2022/06/09 06:43:30;;;;;;;19.17;11.87;;;;;;;;;;5036490;28;20178;-66
2022/06/09 06:45:56;;;;;;;17.63;10.93;;;;;;;;;;5054249;28;20272;-65
2022/06/09 06:48:22;;;;;;;16.77;10.60;;;;;;;;;;5054639;28;20182;-66
2022/06/09 06:50:48;;;;;;;20.13;10.70;;;;;;;;;;5054294;28;20532;-66
2022/06/09 06:53:14;;;;;;;17.83;10.60;;;;;;;;;;5036344;28;20187;-65
2022/06/09 06:55:41;;;;;;;16.90;10.10;;;;;;;;;;5036266;28;20206;-66
2022/06/09 06:58:07;;;;;;;14.33;10.97;;;;;;;;;;5036390;28;20251;-66
2022/06/09 07:00:34;;;;;;;12.97;9.93;;;;;;;;;;5054097;28;20198;-67
2022/06/09 07:03:00;;;;;;;13.20;10.80;;;;;;;;;;5054863;28;20543;-67
2022/06/09 07:05:26;;;;;;;16.53;10.97;;;;;;;;;;5055277;28;20182;-67
2022/06/09 07:07:53;;;;;;;19.90;11.90;;;;;;;;;;5036529;28;20186;-67
2022/06/09 07:10:19;;;;;;;16.83;11.33;;;;;;;;;;5053753;28;20198;-66
2022/06/09 07:12:45;;;;;;;15.37;12.33;;;;;;;;;;5053645;28;20185;-67
2022/06/09 07:15:14;;;;;;;25.83;13.50;;;;;;;;;;5053967;28;20207;-67
2022/06/09 07:17:40;;;;;;;25.80;13.17;;;;;;;;;;5053953;28;20185;-67
2022/06/09 07:20:07;;;;;;;21.67;13.83;;;;;;;;;;5035731;28;20198;-65
2022/06/09 07:22:33;;;;;;;21.10;14.33;;;;;;;;;;5036299;28;20185;-64
2022/06/09 07:24:59;;;;;;;25.60;15.93;;;;;;;;;;5053271;28;20209;-64
2022/06/09 07:27:25;;;;;;;25.20;15.53;;;;;;;;;;5053712;28;20627;-63
2022/06/09 07:29:51;;;;;;;26.10;16.57;;;;;;;;;;5053643;28;20217;-63
2022/06/09 07:32:17;;;;;;;23.63;16.83;;;;;;;;;;5036162;28;20232;-63
2022/06/09 07:34:43;;;;;;;23.83;15.97;;;;;;;;;;5053367;28;20198;-63
2022/06/09 07:37:09;;;;;;;26.83;16.27;;;;;;;;;;5053846;28;20170;-64
2022/06/09 07:39:36;;;;;;;26.57;16.60;;;;;;;;;;5053728;28;20646;-64
2022/06/09 07:42:02;;;;;;;22.77;15.87;;;;;;;;;;5035567;28;20225;-65
2022/06/09 07:46:58;;;;;;;22.00;15.60;;;;;;;;;;5032355;28;20265;-68
2022/06/09 07:49:25;;;;;;;20.47;14.80;;;;;;;;;;5033548;28;20177;-67
2022/06/09 07:51:51;;;;;;;17.27;13.60;;;;;;;;;;5033372;28;20281;-66
2022/06/09 07:54:17;;;;;;;16.93;14.37;;;;;;;;;;5033527;28;20203;-67
2022/06/09 07:56:44;;;;;;;20.17;13.17;;;;;;;;;;5033535;28;20549;-67
2022/06/09 07:59:10;;;;;;;22.57;14.50;;;;;;;;;;5033694;28;20626;-67
2022/06/09 08:01:36;;;;;;;19.97;12.63;;;;;;;;;;5033499;28;20179;-67
2022/06/09 08:04:02;;;;;;;20.10;13.03;;;;;;;;;;5032159;28;20233;-68
2022/06/09 08:06:29;;;;;;;19.37;11.53;;;;;;;;;;5033632;28;20195;-67
2022/06/09 08:08:56;;;;;;;13.07;10.93;;;;;;;;;;5033555;28;20179;-67
2022/06/09 08:11:22;;;;;;;17.00;11.23;;;;;;;;;;5033328;28;20232;-67
2022/06/09 08:13:48;;;;;;;19.40;10.97;;;;;;;;;;5031964;28;20270;-66
2022/06/09 08:16:14;;;;;;;14.80;9.83;;;;;;;;;;5033697;28;20222;-66
2022/06/09 08:18:40;;;;;;;11.93;10.07;;;;;;;;;;5034018;28;20638;-66
2022/06/09 08:21:06;;;;;;;15.87;9.50;;;;;;;;;;5033650;28;20186;-66
2022/06/09 08:23:33;;;;;;;13.33;9.87;;;;;;;;;;5033431;28;20587;-67
2022/06/09 08:25:59;;;;;;;14.70;9.53;;;;;;;;;;5032337;28;20203;-66
2022/06/09 08:28:25;;;;;;;13.93;9.33;;;;;;;;;;5033518;28;20532;-67
2022/06/09 08:30:55;;;;;;;12.47;9.50;;;;;;;;;;5033073;28;20646;-66
2022/06/09 08:33:21;;;;;;;16.53;9.67;;;;;;;;;;5031896;28;20191;-66
2022/06/09 08:35:48;;;;;;;14.50;9.80;;;;;;;;;;5033288;28;20688;-66
2022/06/09 08:38:14;;;;;;;11.93;8.47;;;;;;;;;;5035839;28;20181;-67
2022/06/09 08:40:40;;;;;;;9.13;8.23;;;;;;;;;;5035777;28;20529;-66
2022/06/09 08:43:25;;;;;;;15.23;8.53;;;;;;;;;;5037262;28;20189;-66
2022/06/09 08:45:53;;;;;;;12.03;8.03;;;;;;;;;;5036934;28;20236;-67
2022/06/09 08:48:21;;;;;;;10.40;7.17;;;;;;;;;;5037410;28;20180;-66
2022/06/09 08:50:53;;;;;;;8.17;7.00;;;;;;;;;;5036959;28;20197;-66
2022/06/09 08:53:24;;;;;;;11.27;7.27;;;;;;;;;;5037182;28;20207;-67
2022/06/09 08:55:52;;;;;;;10.33;6.70;;;;;;;;;;5036626;28;20217;-67
2022/06/09 08:58:38;;;;;;;9.30;6.67;;;;;;;;;;5036789;28;20211;-68
2022/06/09 09:01:22;;;;;;;14.80;7.07;;;;;;;;;;5036905;28;20665;-66
2022/06/09 09:03:48;;;;;;;9.57;7.30;;;;;;;;;;5036966;28;20243;-67
2022/06/09 09:06:14;;;;;;;11.10;7.37;;;;;;;;;;5036552;28;20286;-67
2022/06/09 09:08:40;;;;;;;12.20;6.57;;;;;;;;;;5036689;28;20254;-67
2022/06/09 09:11:15;;;;;;;11.57;6.53;;;;;;;;;;5036486;28;20646;-67
2022/06/09 09:16:19;;;;;;;12.40;6.13;;;;;;;;;;5061324;22;20643;-66
2022/06/09 09:18:55;;;;;;;9.00;6.13;;;;;;;;;;5018791;28;20172;-66
2022/06/09 09:21:21;;;;;;;13.90;6.33;;;;;;;;;;5018710;28;20163;-67
2022/06/09 09:23:53;;;;;;;9.70;6.93;;;;;;;;;;5036556;28;20171;-66
2022/06/09 09:26:38;;;;;;;9.63;6.27;;;;;;;;;;5016528;28;20176;-68
2022/06/09 09:29:16;;;;;;;11.23;6.93;;;;;;;;;;5016759;28;20225;-66
2022/06/09 09:32:02;;;;;;;8.50;6.53;;;;;;;;;;5016285;28;20160;-67
2022/06/09 09:34:32;;;;;;;9.10;6.53;;;;;;;;;;5016023;28;20207;-66
2022/06/09 09:37:01;;;;;;;11.17;6.83;;;;;;;;;;5016455;28;20254;-67
2022/06/09 09:39:32;;;;;;;11.33;6.80;;;;;;;;;;5016520;28;20172;-67
2022/06/09 09:42:17;;;;;;;9.00;6.30;;;;;;;;;;4998576;28;20666;-66
2022/06/09 09:44:58;;;;;;;8.50;5.97;;;;;;;;;;5016197;28;20223;-67
2022/06/09 09:47:25;;;;;;;8.50;4.93;;;;;;;;;;5016759;28;20168;-65
2022/06/09 09:49:52;;;;;;;10.80;5.10;;;;;;;;;;5015626;28;20290;-66
2022/06/09 09:52:33;;;;;;;6.93;4.23;;;;;;;;;;5015827;28;20211;-65
2022/06/09 09:54:59;;;;;;;8.33;3.87;;;;;;;;;;5015972;28;20215;-65
2022/06/09 09:57:28;;;;;;;6.93;3.30;;;;;;;;;;4998166;28;20216;-65
2022/06/09 09:59:55;;;;;;;4.23;2.50;;;;;;;;;;5015722;28;20167;-66
2022/06/09 10:11:00;;;;;;;5.33;2.60;;;;;;;;;;5015741;28;20191;-66
2022/06/09 10:13:33;;;;;;;3.83;3.00;;;;;;;;;;5016179;28;20628;-67
2022/06/09 10:15:59;;;;;;;5.97;2.60;;;;;;;;;;5015197;28;20223;-66
2022/06/09 10:18:25;;;;;;;4.87;2.80;;;;;;;;;;4997544;28;20188;-66
2022/06/09 10:20:51;;;;;;;2.77;2.30;;;;;;;;;;5015128;28;20172;-71
2022/06/09 10:23:25;;;;;;;4.03;2.40;;;;;;;;;;4997690;28;20184;-67
2022/06/09 10:26:09;;;;;;;3.37;2.20;;;;;;;;;;5015468;28;20204;-66
2022/06/09 10:28:46;;;;;;;3.60;2.70;;;;;;;;;;4998048;28;20274;-66
2022/06/09 10:31:24;;;;;;;2.90;2.50;;;;;;;;;;4998052;28;20171;-67
2022/06/09 10:34:03;;;;;;;4.17;2.30;;;;;;;;;;4997807;28;20187;-66
2022/06/09 10:36:37;;;;;;;4.80;2.27;;;;;;;;;;4998147;28;20227;-67
2022/06/09 10:39:18;;;;;;;4.17;2.27;;;;;;;;;;4997572;28;20619;-66
2022/06/09 10:41:47;;;;;;;6.20;3.03;;;;;;;;;;4997337;28;20555;-66
2022/06/09 10:44:22;;;;;;;4.30;2.90;;;;;;;;;;4997560;28;20265;-66
2022/06/09 10:55:14;;;;;;;4.40;3.40;;;;;;;;;;4997278;28;20179;-67
2022/06/09 10:55:44;;;;;;;9.70;3.97;;;;;;;;;;5014896;28;20223;-66
2022/06/09 10:58:15;;;;;;;5.53;4.33;;;;;;;;;;4996949;28;20286;-66
2022/06/09 11:00:49;;;;;;;6.57;4.70;;;;;;;;;;4996304;28;20176;-66
2022/06/09 11:03:17;;;;;;;5.80;3.93;;;;;;;;;;5014536;28;20258;-66
2022/06/09 11:05:53;;;;;;;6.17;4.73;;;;;;;;;;4996749;28;20698;-66
2022/06/09 11:08:28;;;;;;;5.10;3.90;;;;;;;;;;5014598;28;20613;-67
2022/06/09 11:10:53;;;;;;;7.93;4.60;;;;;;;;;;4996889;28;20179;-66
2022/06/09 11:13:22;;;;;;;5.20;4.17;;;;;;;;;;5014431;28;20530;-67
2022/06/09 11:16:03;;;;;;;4.90;4.27;;;;;;;;;;5014216;28;20219;-66
2022/06/09 11:18:32;;;;;;;6.70;3.50;;;;;;;;;;4996639;28;20569;-67
2022/06/09 11:21:16;;;;;;;3.53;3.23;;;;;;;;;;5014490;28;20180;-66
2022/06/09 11:24:01;;;;;;;4.67;3.10;;;;;;;;;;4996481;28;20176;-66
2022/06/09 11:26:33;;;;;;;5.53;3.10;;;;;;;;;;5014501;28;20240;-67
2022/06/09 11:29:14;;;;;;;4.20;2.77;;;;;;;;;;4996676;28;20218;-66
2022/06/09 11:31:52;;;;;;;5.43;3.13;;;;;;;;;;5014985;28;20187;-67
2022/06/09 11:34:21;;;;;;;4.37;3.20;;;;;;;;;;4996322;28;20273;-67
2022/06/09 11:37:00;;;;;;;4.80;3.10;;;;;;;;;;4996443;28;20215;-67
2022/06/09 11:39:29;;;;;;;5.17;2.90;;;;;;;;;;4996385;28;20176;-67
2022/06/09 11:42:02;;;;;;;4.57;2.60;;;;;;;;;;5014262;28;20194;-67
2022/06/09 11:44:30;;;;;;;4.07;2.90;;;;;;;;;;5014255;28;20215;-67
2022/06/09 11:47:00;;;;;;;4.07;2.70;;;;;;;;;;5013822;28;20230;-66
2022/06/09 11:49:44;;;;;;;4.63;2.90;;;;;;;;;;5013731;28;20175;-68
2022/06/09 11:52:13;;;;;;;3.93;3.10;;;;;;;;;;4996128;28;20179;-67
2022/06/09 11:54:42;;;;;;;5.00;3.03;;;;;;;;;;5013942;28;20283;-67
2022/06/09 11:57:27;;;;;;;3.00;2.80;;;;;;;;;;5014075;28;20666;-67
2022/06/09 11:59:53;;;;;;;2.70;2.50;;;;;;;;;;5013856;28;20184;-67
2022/06/09 12:02:26;;;;;;;3.30;1.80;;;;;;;;;;5014192;28;20186;-67
2022/06/09 12:05:09;;;;;;;2.20;2.00;;;;;;;;;;4996332;28;20262;-67
2022/06/09 12:07:41;;;;;;;2.63;1.90;;;;;;;;;;5013947;28;20670;-64
2022/06/09 12:10:22;;;;;;;1.83;1.73;;;;;;;;;;5013866;28;20258;-66
2022/06/09 12:13:08;;;;;;;3.67;1.90;;;;;;;;;;4999759;28;20596;-66
2022/06/09 12:15:46;;;;;;;2.00;1.70;;;;;;;;;;5004134;28;20243;-65
2022/06/09 12:18:16;;;;;;;3.20;1.70;;;;;;;;;;5018516;28;20167;-67
2022/06/09 12:20:49;;;;;;;1.70;1.60;;;;;;;;;;5018018;28;20635;-67
2022/06/09 12:23:27;;;;;;;2.30;1.57;;;;;;;;;;5000577;28;20175;-66
2022/06/09 12:26:16;;;;;;;2.40;1.20;;;;;;;;;;5017903;28;20210;-67
2022/06/09 12:28:44;;;;;;;1.73;1.40;;;;;;;;;;5000001;28;20176;-67
2022/06/09 12:31:30;;;;;;;2.90;2.07;;;;;;;;;;5000030;28;20274;-67
2022/06/09 12:34:11;;;;;;;1.73;1.50;;;;;;;;;;5017262;28;20196;-69
2022/06/09 12:36:57;;;;;;;1.60;1.50;;;;;;;;;;5017675;28;20207;-67
2022/06/09 12:39:32;;;;;;;1.57;1.47;;;;;;;;;;5017569;28;20168;-66
2022/06/09 12:42:00;;;;;;;1.53;1.43;;;;;;;;;;5017542;28;20176;-67
2022/06/09 12:44:37;;;;;;;1.80;1.70;;;;;;;;;;4999806;28;20258;-66
2022/06/09 12:47:21;;;;;;;2.10;1.60;;;;;;;;;;5000242;28;20544;-66
2022/06/09 12:49:49;;;;;;;4.20;1.83;;;;;;;;;;5017349;28;20168;-65
2022/06/09 12:52:25;;;;;;;3.67;1.97;;;;;;;;;;5017248;28;20198;-65
2022/06/09 12:54:59;;;;;;;2.00;1.67;;;;;;;;;;4999731;28;20686;-67
2022/06/09 12:57:27;;;;;;;2.07;1.53;;;;;;;;;;5017528;28;20180;-68
2022/06/09 13:00:06;;;;;;;1.80;1.40;;;;;;;;;;5017635;28;20588;-68
2022/06/09 13:02:34;;;;;;;1.97;1.63;;;;;;;;;;5017002;28;20176;-66
2022/06/09 13:05:15;;;;;;;2.27;2.00;;;;;;;;;;5017134;28;20200;-67
2022/06/09 13:07:47;;;;;;;1.60;1.50;;;;;;;;;;5017078;28;20171;-67
2022/06/09 13:10:16;;;;;;;1.60;1.50;;;;;;;;;;4999239;28;20183;-67
2022/06/09 13:12:51;;;;;;;2.47;1.83;;;;;;;;;;5016865;28;20184;-66
2022/06/09 13:15:22;;;;;;;3.03;2.17;;;;;;;;;;5016582;28;20233;-67
2022/06/09 13:17:49;;;;;;;5.87;2.57;;;;;;;;;;4998956;28;20178;-66
2022/06/09 13:20:17;;;;;;;3.93;2.60;;;;;;;;;;4999192;28;20690;-67
2022/06/09 13:22:43;;;;;;;3.50;2.57;;;;;;;;;;5016217;28;20184;-67
2022/06/09 13:25:21;;;;;;;4.17;3.07;;;;;;;;;;5016703;28;20203;-67
2022/06/09 13:27:48;;;;;;;4.90;3.10;;;;;;;;;;5016373;28;20179;-66
2022/06/09 13:30:30;;;;;;;6.03;3.30;;;;;;;;;;5016699;28;20171;-64
2022/06/09 13:32:56;;;;;;;6.50;3.73;;;;;;;;;;5016622;28;20168;-64
2022/06/09 13:35:37;;;;;;;6.23;4.40;;;;;;;;;;5015700;28;20211;-64
2022/06/09 13:38:17;;;;;;;9.10;4.53;;;;;;;;;;5016462;28;20655;-67
2022/06/09 13:40:45;;;;;;;8.30;5.33;;;;;;;;;;4998465;28;20156;-66
2022/06/09 13:43:29;;;;;;;6.70;4.07;;;;;;;;;;5016159;28;20225;-66
2022/06/09 13:46:02;;;;;;;7.40;4.90;;;;;;;;;;5015868;28;20206;-66
2022/06/09 13:48:39;;;;;;;9.30;5.30;;;;;;;;;;4998305;28;20183;-67
2022/06/09 13:51:06;;;;;;;9.87;5.73;;;;;;;;;;5016123;28;20254;-66
2022/06/09 13:54:01;;;;;;;4.60;4.20;;;;;;;;;;5015710;28;20238;-65
2022/06/09 13:56:27;;;;;;;8.73;4.43;;;;;;;;;;5015909;28;20192;-65
2022/06/09 13:58:53;;;;;;;3.97;3.57;;;;;;;;;;4998035;28;20191;-66
2022/06/09 14:01:19;;;;;;;5.07;3.53;;;;;;;;;;5015876;28;20187;-67
2022/06/09 14:03:47;;;;;;;8.20;3.73;;;;;;;;;;4998190;28;20237;-67
2022/06/09 14:06:15;;;;;;;9.57;4.73;;;;;;;;;;4998125;28;20215;-67
2022/06/09 14:08:44;;;;;;;7.33;4.00;;;;;;;;;;5016697;28;20184;-67
2022/06/09 14:11:15;;;;;;;7.03;3.40;;;;;;;;;;5015479;28;20180;-66
2022/06/09 14:13:41;;;;;;;7.27;3.47;;;;;;;;;;5015719;28;20619;-66
2022/06/09 14:16:07;;;;;;;3.97;3.03;;;;;;;;;;5015114;28;20226;-66
2022/06/09 14:18:34;;;;;;;7.57;3.07;;;;;;;;;;5015657;28;20180;-66
2022/06/09 14:21:00;;;;;;;6.57;3.50;;;;;;;;;;5015375;28;20180;-66
2022/06/09 14:23:30;;;;;;;5.67;3.70;;;;;;;;;;5015642;28;20537;-66
2022/06/09 14:25:58;;;;;;;5.37;3.70;;;;;;;;;;5015126;28;20200;-67
2022/06/09 14:28:25;;;;;;;5.23;3.80;;;;;;;;;;5015248;28;20679;-65
2022/06/09 14:30:51;;;;;;;5.63;3.83;;;;;;;;;;5015030;28;20187;-67
2022/06/09 14:33:17;;;;;;;6.13;4.50;;;;;;;;;;5015407;28;20190;-66
2022/06/09 14:35:44;;;;;;;7.83;5.03;;;;;;;;;;5013690;28;20212;-66
2022/06/09 14:38:11;;;;;;;8.67;5.00;;;;;;;;;;5015235;28;20180;-66
2022/06/09 14:40:39;;;;;;;7.23;4.47;;;;;;;;;;4997264;28;20180;-66
2022/06/09 14:43:07;;;;;;;7.07;5.03;;;;;;;;;;5014898;28;20180;-66
2022/06/09 14:45:33;;;;;;;6.00;4.87;;;;;;;;;;5014567;28;20195;-66
2022/06/09 14:47:59;;;;;;;7.37;3.97;;;;;;;;;;4997166;28;20557;-66
2022/06/09 14:50:26;;;;;;;7.13;4.43;;;;;;;;;;5014843;28;20538;-67
2022/06/09 14:52:52;;;;;;;4.40;3.77;;;;;;;;;;4997190;28;20184;-67
2022/06/09 14:55:18;;;;;;;10.37;3.37;;;;;;;;;;4997037;28;20257;-66
2022/06/09 14:57:45;;;;;;;5.00;2.87;;;;;;;;;;5014765;28;20178;-66
2022/06/09 15:00:16;;;;;;;4.40;2.80;;;;;;;;;;5014839;28;20242;-67
2022/06/09 15:02:42;;;;;;;4.40;2.50;;;;;;;;;;4996965;28;20195;-66
2022/06/09 15:05:08;;;;;;;2.67;2.43;;;;;;;;;;5014440;28;20575;-66
2022/06/09 15:07:34;;;;;;;3.37;2.43;;;;;;;;;;4996759;28;20205;-66
2022/06/09 15:10:01;;;;;;;5.20;2.93;;;;;;;;;;5014512;28;20194;-67
2022/06/09 15:12:27;;;;;;;2.90;2.60;;;;;;;;;;5014262;28;20659;-67
2022/06/09 15:14:53;;;;;;;2.97;2.47;;;;;;;;;;5014046;28;20215;-67
2022/06/09 15:17:19;;;;;;;4.50;2.37;;;;;;;;;;4996440;28;20187;-67